sensor_id;sensor_type;location;lat;lon;timestamp;temperature;humidity
22645;DHT22;11489;50.834;6.752;2024-03-06T00:01:51;5.90;97.20
22645;DHT22;11489;50.834;6.752;2024-03-06T00:04:17;5.80;97.20
22645;DHT22;11489;50.834;6.752;2024-03-06T00:06:42;5.80;97.30
22645;DHT22;11489;50.834;6.752;2024-03-06T00:09:08;5.70;97.40
22645;DHT22;11489;50.834;6.752;2024-03-06T00:11:34;5.60;97.50
22645;DHT22;11489;50.834;6.752;2024-03-06T00:14:03;5.60;97.60
22645;DHT22;11489;50.834;6.752;2024-03-06T00:16:31;5.50;97.70
22645;DHT22;11489;50.834;6.752;2024-03-06T00:18:57;5.50;97.70
22645;DHT22;11489;50.834;6.752;2024-03-06T00:21:22;5.50;97.80
22645;DHT22;11489;50.834;6.752;2024-03-06T00:23:48;5.40;97.80
22645;DHT22;11489;50.834;6.752;2024-03-06T00:26:14;5.40;97.80
22645;DHT22;11489;50.834;6.752;2024-03-06T00:28:40;5.30;97.80
22645;DHT22;11489;50.834;6.752;2024-03-06T00:31:06;5.30;97.90
22645;DHT22;11489;50.834;6.752;2024-03-06T00:33:31;5.30;97.90
22645;DHT22;11489;50.834;6.752;2024-03-06T00:35:57;5.20;97.90
22645;DHT22;11489;50.834;6.752;2024-03-06T00:38:23;5.20;98.00
22645;DHT22;11489;50.834;6.752;2024-03-06T00:40:48;5.20;98.10
22645;DHT22;11489;50.834;6.752;2024-03-06T00:43:14;5.10;98.10
22645;DHT22;11489;50.834;6.752;2024-03-06T00:45:40;5.10;98.10
22645;DHT22;11489;50.834;6.752;2024-03-06T00:48:06;5.10;98.10
22645;DHT22;11489;50.834;6.752;2024-03-06T00:50:32;5.20;98.10
22645;DHT22;11489;50.834;6.752;2024-03-06T00:52:58;5.10;98.00
22645;DHT22;11489;50.834;6.752;2024-03-06T00:55:23;5.10;97.90
22645;DHT22;11489;50.834;6.752;2024-03-06T00:57:49;5.00;97.80
22645;DHT22;11489;50.834;6.752;2024-03-06T01:00:15;5.00;97.70
22645;DHT22;11489;50.834;6.752;2024-03-06T01:02:41;5.00;97.60
22645;DHT22;11489;50.834;6.752;2024-03-06T01:05:07;4.90;97.50
22645;DHT22;11489;50.834;6.752;2024-03-06T01:07:37;4.90;97.40
22645;DHT22;11489;50.834;6.752;2024-03-06T01:10:04;4.80;97.30
22645;DHT22;11489;50.834;6.752;2024-03-06T01:12:32;4.70;97.20
22645;DHT22;11489;50.834;6.752;2024-03-06T01:14:58;4.70;97.20
22645;DHT22;11489;50.834;6.752;2024-03-06T01:17:24;4.60;97.10
22645;DHT22;11489;50.834;6.752;2024-03-06T01:19:50;4.50;97.10
22645;DHT22;11489;50.834;6.752;2024-03-06T01:22:16;4.40;97.10
22645;DHT22;11489;50.834;6.752;2024-03-06T01:24:43;4.40;97.10
22645;DHT22;11489;50.834;6.752;2024-03-06T01:27:09;4.30;97.10
22645;DHT22;11489;50.834;6.752;2024-03-06T01:29:34;4.20;97.10
22645;DHT22;11489;50.834;6.752;2024-03-06T01:32:01;4.10;97.10
22645;DHT22;11489;50.834;6.752;2024-03-06T01:34:27;4.10;97.20
22645;DHT22;11489;50.834;6.752;2024-03-06T01:36:53;4.00;97.30
22645;DHT22;11489;50.834;6.752;2024-03-06T01:39:19;4.00;97.30
22645;DHT22;11489;50.834;6.752;2024-03-06T01:41:49;3.90;97.30
22645;DHT22;11489;50.834;6.752;2024-03-06T01:44:16;3.90;97.30
22645;DHT22;11489;50.834;6.752;2024-03-06T01:46:46;3.80;97.30
22645;DHT22;11489;50.834;6.752;2024-03-06T01:49:15;3.80;97.30
22645;DHT22;11489;50.834;6.752;2024-03-06T01:51:42;3.80;97.40
22645;DHT22;11489;50.834;6.752;2024-03-06T01:54:10;3.70;97.50
22645;DHT22;11489;50.834;6.752;2024-03-06T01:56:39;3.70;97.70
22645;DHT22;11489;50.834;6.752;2024-03-06T01:59:07;3.70;97.90
22645;DHT22;11489;50.834;6.752;2024-03-06T02:01:33;3.70;97.90
22645;DHT22;11489;50.834;6.752;2024-03-06T02:03:59;3.70;97.90
22645;DHT22;11489;50.834;6.752;2024-03-06T02:06:25;3.60;97.90
22645;DHT22;11489;50.834;6.752;2024-03-06T02:08:51;3.70;97.90
22645;DHT22;11489;50.834;6.752;2024-03-06T02:11:17;3.60;97.80
22645;DHT22;11489;50.834;6.752;2024-03-06T02:13:43;3.60;97.70
22645;DHT22;11489;50.834;6.752;2024-03-06T02:16:10;3.60;97.70
22645;DHT22;11489;50.834;6.752;2024-03-06T02:18:36;3.60;97.70
22645;DHT22;11489;50.834;6.752;2024-03-06T02:21:03;3.50;97.60
22645;DHT22;11489;50.834;6.752;2024-03-06T02:23:30;3.50;97.40
22645;DHT22;11489;50.834;6.752;2024-03-06T02:25:56;3.50;97.60
22645;DHT22;11489;50.834;6.752;2024-03-06T02:28:22;3.40;97.60
22645;DHT22;11489;50.834;6.752;2024-03-06T02:30:50;3.40;97.60
22645;DHT22;11489;50.834;6.752;2024-03-06T02:33:16;3.30;97.60
22645;DHT22;11489;50.834;6.752;2024-03-06T02:35:43;3.30;97.60
22645;DHT22;11489;50.834;6.752;2024-03-06T02:38:10;3.30;97.60
22645;DHT22;11489;50.834;6.752;2024-03-06T02:40:36;3.20;97.50
22645;DHT22;11489;50.834;6.752;2024-03-06T02:43:02;3.20;97.50
22645;DHT22;11489;50.834;6.752;2024-03-06T02:45:28;3.10;97.50
22645;DHT22;11489;50.834;6.752;2024-03-06T02:47:53;3.10;97.50
22645;DHT22;11489;50.834;6.752;2024-03-06T02:50:19;3.00;97.50
22645;DHT22;11489;50.834;6.752;2024-03-06T02:52:46;3.00;97.40
22645;DHT22;11489;50.834;6.752;2024-03-06T02:55:12;3.00;97.40
22645;DHT22;11489;50.834;6.752;2024-03-06T02:57:38;2.90;97.30
22645;DHT22;11489;50.834;6.752;2024-03-06T03:00:04;2.90;97.30
22645;DHT22;11489;50.834;6.752;2024-03-06T03:02:30;2.80;97.30
22645;DHT22;11489;50.834;6.752;2024-03-06T03:04:56;2.80;97.30
22645;DHT22;11489;50.834;6.752;2024-03-06T03:07:23;2.70;97.60
22645;DHT22;11489;50.834;6.752;2024-03-06T03:09:49;2.70;97.30
22645;DHT22;11489;50.834;6.752;2024-03-06T03:12:15;2.60;97.30
22645;DHT22;11489;50.834;6.752;2024-03-06T03:14:41;2.60;97.40
22645;DHT22;11489;50.834;6.752;2024-03-06T03:17:07;2.50;97.50
22645;DHT22;11489;50.834;6.752;2024-03-06T03:19:33;2.50;97.50
22645;DHT22;11489;50.834;6.752;2024-03-06T03:21:59;2.50;97.50
22645;DHT22;11489;50.834;6.752;2024-03-06T03:24:25;2.50;97.60
22645;DHT22;11489;50.834;6.752;2024-03-06T03:26:54;2.40;97.60
22645;DHT22;11489;50.834;6.752;2024-03-06T03:29:19;2.40;97.50
22645;DHT22;11489;50.834;6.752;2024-03-06T03:31:46;2.40;97.60
22645;DHT22;11489;50.834;6.752;2024-03-06T03:34:12;2.30;97.50
22645;DHT22;11489;50.834;6.752;2024-03-06T03:36:42;2.30;97.50
22645;DHT22;11489;50.834;6.752;2024-03-06T03:39:10;2.30;97.60
22645;DHT22;11489;50.834;6.752;2024-03-06T03:41:48;2.20;97.60
22645;DHT22;11489;50.834;6.752;2024-03-06T03:44:14;2.20;97.70
22645;DHT22;11489;50.834;6.752;2024-03-06T03:46:40;2.20;97.80
22645;DHT22;11489;50.834;6.752;2024-03-06T03:49:06;2.20;97.90
22645;DHT22;11489;50.834;6.752;2024-03-06T03:51:32;2.20;98.00
22645;DHT22;11489;50.834;6.752;2024-03-06T03:53:57;2.20;98.10
22645;DHT22;11489;50.834;6.752;2024-03-06T03:56:23;2.20;98.20
22645;DHT22;11489;50.834;6.752;2024-03-06T03:58:49;2.30;98.40
22645;DHT22;11489;50.834;6.752;2024-03-06T04:01:15;2.30;98.60
22645;DHT22;11489;50.834;6.752;2024-03-06T04:03:40;2.30;98.70
22645;DHT22;11489;50.834;6.752;2024-03-06T04:06:08;2.40;98.90
22645;DHT22;11489;50.834;6.752;2024-03-06T04:08:34;2.40;99.00
22645;DHT22;11489;50.834;6.752;2024-03-06T04:10:59;2.50;99.10
22645;DHT22;11489;50.834;6.752;2024-03-06T04:13:26;2.60;99.20
22645;DHT22;11489;50.834;6.752;2024-03-06T04:15:51;2.70;99.30
22645;DHT22;11489;50.834;6.752;2024-03-06T04:18:17;2.80;99.30
22645;DHT22;11489;50.834;6.752;2024-03-06T04:20:43;2.80;99.30
22645;DHT22;11489;50.834;6.752;2024-03-06T04:23:09;2.90;99.30
22645;DHT22;11489;50.834;6.752;2024-03-06T04:25:34;3.00;99.30
22645;DHT22;11489;50.834;6.752;2024-03-06T04:28:00;3.00;99.30
22645;DHT22;11489;50.834;6.752;2024-03-06T04:30:27;3.10;99.30
22645;DHT22;11489;50.834;6.752;2024-03-06T04:32:53;3.20;99.30
22645;DHT22;11489;50.834;6.752;2024-03-06T04:35:19;3.20;99.20
22645;DHT22;11489;50.834;6.752;2024-03-06T04:37:45;3.30;99.20
22645;DHT22;11489;50.834;6.752;2024-03-06T04:40:10;3.40;99.20
22645;DHT22;11489;50.834;6.752;2024-03-06T04:42:36;3.40;99.20
22645;DHT22;11489;50.834;6.752;2024-03-06T04:45:03;3.50;99.20
22645;DHT22;11489;50.834;6.752;2024-03-06T04:47:29;3.50;99.10
22645;DHT22;11489;50.834;6.752;2024-03-06T04:49:55;3.60;99.10
22645;DHT22;11489;50.834;6.752;2024-03-06T04:52:21;3.60;99.10
22645;DHT22;11489;50.834;6.752;2024-03-06T04:54:46;3.70;99.10
22645;DHT22;11489;50.834;6.752;2024-03-06T04:57:12;3.70;99.10
22645;DHT22;11489;50.834;6.752;2024-03-06T04:59:37;3.70;99.10
22645;DHT22;11489;50.834;6.752;2024-03-06T05:02:03;3.70;99.10
22645;DHT22;11489;50.834;6.752;2024-03-06T05:04:29;3.80;99.00
22645;DHT22;11489;50.834;6.752;2024-03-06T05:06:55;3.80;99.00
22645;DHT22;11489;50.834;6.752;2024-03-06T05:09:21;3.80;98.90
22645;DHT22;11489;50.834;6.752;2024-03-06T05:11:47;3.90;99.00
22645;DHT22;11489;50.834;6.752;2024-03-06T05:14:16;3.90;98.90
22645;DHT22;11489;50.834;6.752;2024-03-06T05:16:42;3.90;98.80
22645;DHT22;11489;50.834;6.752;2024-03-06T05:19:09;3.90;98.80
22645;DHT22;11489;50.834;6.752;2024-03-06T05:21:36;3.90;98.70
22645;DHT22;11489;50.834;6.752;2024-03-06T05:24:02;3.90;98.70
22645;DHT22;11489;50.834;6.752;2024-03-06T05:26:28;3.90;98.60
22645;DHT22;11489;50.834;6.752;2024-03-06T05:28:53;3.90;98.60
22645;DHT22;11489;50.834;6.752;2024-03-06T05:31:20;3.90;98.50
22645;DHT22;11489;50.834;6.752;2024-03-06T05:33:49;3.90;98.40
22645;DHT22;11489;50.834;6.752;2024-03-06T05:36:17;3.90;98.40
22645;DHT22;11489;50.834;6.752;2024-03-06T05:38:44;3.80;98.30
22645;DHT22;11489;50.834;6.752;2024-03-06T05:41:10;3.80;98.30
22645;DHT22;11489;50.834;6.752;2024-03-06T05:43:36;3.80;98.30
22645;DHT22;11489;50.834;6.752;2024-03-06T05:46:02;3.80;98.40
22645;DHT22;11489;50.834;6.752;2024-03-06T05:48:28;3.80;98.50
22645;DHT22;11489;50.834;6.752;2024-03-06T05:50:54;3.80;98.50
22645;DHT22;11489;50.834;6.752;2024-03-06T05:53:19;3.80;98.50
22645;DHT22;11489;50.834;6.752;2024-03-06T05:55:46;3.80;98.60
22645;DHT22;11489;50.834;6.752;2024-03-06T05:58:11;3.80;98.60
22645;DHT22;11489;50.834;6.752;2024-03-06T06:00:38;3.80;98.60
22645;DHT22;11489;50.834;6.752;2024-03-06T06:03:05;3.80;98.60
22645;DHT22;11489;50.834;6.752;2024-03-06T06:05:30;3.80;98.60
22645;DHT22;11489;50.834;6.752;2024-03-06T06:07:56;3.80;98.60
22645;DHT22;11489;50.834;6.752;2024-03-06T06:10:22;3.80;98.60
22645;DHT22;11489;50.834;6.752;2024-03-06T06:12:47;3.80;98.50
22645;DHT22;11489;50.834;6.752;2024-03-06T06:15:13;3.80;98.50
22645;DHT22;11489;50.834;6.752;2024-03-06T06:17:39;3.80;98.50
22645;DHT22;11489;50.834;6.752;2024-03-06T06:20:07;3.80;98.50
22645;DHT22;11489;50.834;6.752;2024-03-06T06:22:36;3.70;98.50
22645;DHT22;11489;50.834;6.752;2024-03-06T06:25:02;3.70;98.50
22645;DHT22;11489;50.834;6.752;2024-03-06T06:27:29;3.70;98.80
22645;DHT22;11489;50.834;6.752;2024-03-06T06:29:54;3.70;98.50
22645;DHT22;11489;50.834;6.752;2024-03-06T06:32:21;3.70;98.50
22645;DHT22;11489;50.834;6.752;2024-03-06T06:34:46;3.70;98.60
22645;DHT22;11489;50.834;6.752;2024-03-06T06:37:12;3.70;98.60
22645;DHT22;11489;50.834;6.752;2024-03-06T06:39:38;3.70;98.60
22645;DHT22;11489;50.834;6.752;2024-03-06T06:42:04;3.70;98.90
22645;DHT22;11489;50.834;6.752;2024-03-06T06:44:29;3.70;98.50
22645;DHT22;11489;50.834;6.752;2024-03-06T06:46:55;3.70;98.50
22645;DHT22;11489;50.834;6.752;2024-03-06T06:49:21;3.70;98.50
22645;DHT22;11489;50.834;6.752;2024-03-06T06:51:47;3.70;98.50
22645;DHT22;11489;50.834;6.752;2024-03-06T06:54:15;3.70;98.50
22645;DHT22;11489;50.834;6.752;2024-03-06T06:56:40;3.70;98.60
22645;DHT22;11489;50.834;6.752;2024-03-06T06:59:06;3.70;98.70
22645;DHT22;11489;50.834;6.752;2024-03-06T07:01:32;3.70;98.80
22645;DHT22;11489;50.834;6.752;2024-03-06T07:03:58;3.70;98.80
22645;DHT22;11489;50.834;6.752;2024-03-06T07:06:24;3.80;98.90
22645;DHT22;11489;50.834;6.752;2024-03-06T07:08:50;3.80;99.00
22645;DHT22;11489;50.834;6.752;2024-03-06T07:11:17;3.90;99.00
22645;DHT22;11489;50.834;6.752;2024-03-06T07:13:44;3.90;98.90
22645;DHT22;11489;50.834;6.752;2024-03-06T07:16:09;3.90;99.20
22645;DHT22;11489;50.834;6.752;2024-03-06T07:18:35;3.90;98.90
22645;DHT22;11489;50.834;6.752;2024-03-06T07:21:01;3.90;98.80
22645;DHT22;11489;50.834;6.752;2024-03-06T07:23:27;3.90;98.80
22645;DHT22;11489;50.834;6.752;2024-03-06T07:25:52;4.00;98.90
22645;DHT22;11489;50.834;6.752;2024-03-06T07:28:18;4.00;98.90
22645;DHT22;11489;50.834;6.752;2024-03-06T07:30:44;4.00;98.90
22645;DHT22;11489;50.834;6.752;2024-03-06T07:33:10;4.10;99.00
22645;DHT22;11489;50.834;6.752;2024-03-06T07:35:36;4.10;99.00
22645;DHT22;11489;50.834;6.752;2024-03-06T07:38:02;4.10;99.00
22645;DHT22;11489;50.834;6.752;2024-03-06T07:40:30;4.20;99.10
22645;DHT22;11489;50.834;6.752;2024-03-06T07:42:57;4.30;99.10
22645;DHT22;11489;50.834;6.752;2024-03-06T07:45:23;4.30;99.10
22645;DHT22;11489;50.834;6.752;2024-03-06T07:47:49;4.30;99.20
22645;DHT22;11489;50.834;6.752;2024-03-06T07:50:14;4.40;99.20
22645;DHT22;11489;50.834;6.752;2024-03-06T07:52:45;4.40;99.20
22645;DHT22;11489;50.834;6.752;2024-03-06T07:55:11;4.50;99.30
22645;DHT22;11489;50.834;6.752;2024-03-06T07:57:37;4.50;99.30
22645;DHT22;11489;50.834;6.752;2024-03-06T08:00:05;4.60;99.30
22645;DHT22;11489;50.834;6.752;2024-03-06T08:02:40;4.60;99.30
22645;DHT22;11489;50.834;6.752;2024-03-06T08:05:12;4.70;99.40
22645;DHT22;11489;50.834;6.752;2024-03-06T08:07:41;4.80;99.40
22645;DHT22;11489;50.834;6.752;2024-03-06T08:10:12;4.90;99.50
22645;DHT22;11489;50.834;6.752;2024-03-06T08:12:43;5.00;99.50
22645;DHT22;11489;50.834;6.752;2024-03-06T08:15:14;5.00;99.50
22645;DHT22;11489;50.834;6.752;2024-03-06T08:17:43;5.20;99.60
22645;DHT22;11489;50.834;6.752;2024-03-06T08:20:10;5.20;99.50
22645;DHT22;11489;50.834;6.752;2024-03-06T08:22:39;5.30;99.50
22645;DHT22;11489;50.834;6.752;2024-03-06T08:25:12;5.40;99.60
22645;DHT22;11489;50.834;6.752;2024-03-06T08:27:39;5.50;99.60
22645;DHT22;11489;50.834;6.752;2024-03-06T08:30:07;5.60;99.60
22645;DHT22;11489;50.834;6.752;2024-03-06T08:32:34;5.70;99.60
22645;DHT22;11489;50.834;6.752;2024-03-06T08:35:11;5.80;99.60
22645;DHT22;11489;50.834;6.752;2024-03-06T08:37:37;5.90;99.60
22645;DHT22;11489;50.834;6.752;2024-03-06T08:40:05;6.00;99.60
22645;DHT22;11489;50.834;6.752;2024-03-06T08:42:30;6.10;99.60
22645;DHT22;11489;50.834;6.752;2024-03-06T08:44:58;6.20;99.60
22645;DHT22;11489;50.834;6.752;2024-03-06T08:47:23;6.30;99.50
22645;DHT22;11489;50.834;6.752;2024-03-06T08:49:49;6.50;99.50
22645;DHT22;11489;50.834;6.752;2024-03-06T08:52:15;6.50;99.50
22645;DHT22;11489;50.834;6.752;2024-03-06T08:54:41;6.60;99.50
22645;DHT22;11489;50.834;6.752;2024-03-06T08:57:07;6.70;99.50
22645;DHT22;11489;50.834;6.752;2024-03-06T08:59:34;6.90;99.50
22645;DHT22;11489;50.834;6.752;2024-03-06T09:02:12;7.00;99.50
22645;DHT22;11489;50.834;6.752;2024-03-06T09:04:39;7.10;99.30
22645;DHT22;11489;50.834;6.752;2024-03-06T09:07:05;7.20;99.50
22645;DHT22;11489;50.834;6.752;2024-03-06T09:09:31;7.40;99.60
22645;DHT22;11489;50.834;6.752;2024-03-06T09:12:00;7.60;99.70
22645;DHT22;11489;50.834;6.752;2024-03-06T09:14:26;7.70;99.90
22645;DHT22;11489;50.834;6.752;2024-03-06T09:16:51;7.90;99.90
22645;DHT22;11489;50.834;6.752;2024-03-06T09:19:17;8.10;99.90
22645;DHT22;11489;50.834;6.752;2024-03-06T09:21:43;8.20;99.90
22645;DHT22;11489;50.834;6.752;2024-03-06T09:24:08;8.40;99.90
22645;DHT22;11489;50.834;6.752;2024-03-06T09:26:34;8.60;99.90
22645;DHT22;11489;50.834;6.752;2024-03-06T09:29:00;8.80;99.90
22645;DHT22;11489;50.834;6.752;2024-03-06T09:31:26;9.10;99.90
22645;DHT22;11489;50.834;6.752;2024-03-06T09:33:53;9.50;99.90
22645;DHT22;11489;50.834;6.752;2024-03-06T09:36:19;9.80;99.90
22645;DHT22;11489;50.834;6.752;2024-03-06T09:38:44;10.10;99.90
22645;DHT22;11489;50.834;6.752;2024-03-06T09:41:10;10.30;99.80
22645;DHT22;11489;50.834;6.752;2024-03-06T09:43:36;10.40;99.40
22645;DHT22;11489;50.834;6.752;2024-03-06T09:46:02;10.50;98.90
22645;DHT22;11489;50.834;6.752;2024-03-06T09:48:29;10.60;98.70
22645;DHT22;11489;50.834;6.752;2024-03-06T09:51:01;10.70;98.50
22645;DHT22;11489;50.834;6.752;2024-03-06T09:53:27;10.70;98.30
22645;DHT22;11489;50.834;6.752;2024-03-06T09:55:54;10.70;98.40
22645;DHT22;11489;50.834;6.752;2024-03-06T09:58:19;10.70;98.40
22645;DHT22;11489;50.834;6.752;2024-03-06T10:00:46;10.80;98.40
22645;DHT22;11489;50.834;6.752;2024-03-06T10:03:13;10.80;98.60
22645;DHT22;11489;50.834;6.752;2024-03-06T10:05:39;10.90;98.90
22645;DHT22;11489;50.834;6.752;2024-03-06T10:08:05;11.00;99.10
22645;DHT22;11489;50.834;6.752;2024-03-06T10:10:31;11.20;99.70
22645;DHT22;11489;50.834;6.752;2024-03-06T10:12:57;11.50;99.90
22645;DHT22;11489;50.834;6.752;2024-03-06T10:15:26;11.80;99.90
22645;DHT22;11489;50.834;6.752;2024-03-06T10:17:53;12.10;99.90
22645;DHT22;11489;50.834;6.752;2024-03-06T10:20:35;12.40;99.90
22645;DHT22;11489;50.834;6.752;2024-03-06T10:23:00;12.70;99.50
22645;DHT22;11489;50.834;6.752;2024-03-06T10:25:26;13.00;99.40
22645;DHT22;11489;50.834;6.752;2024-03-06T10:28:09;13.20;99.50
22645;DHT22;11489;50.834;6.752;2024-03-06T10:30:41;13.60;97.90
22645;DHT22;11489;50.834;6.752;2024-03-06T10:33:16;13.90;99.10
22645;DHT22;11489;50.834;6.752;2024-03-06T10:35:47;14.20;98.90
22645;DHT22;11489;50.834;6.752;2024-03-06T10:38:19;14.50;98.80
22645;DHT22;11489;50.834;6.752;2024-03-06T10:40:45;14.70;98.30
22645;DHT22;11489;50.834;6.752;2024-03-06T10:43:11;14.90;98.30
22645;DHT22;11489;50.834;6.752;2024-03-06T10:45:50;15.10;98.10
22645;DHT22;11489;50.834;6.752;2024-03-06T10:48:19;15.30;96.70
22645;DHT22;11489;50.834;6.752;2024-03-06T10:50:46;15.40;96.80
22645;DHT22;11489;50.834;6.752;2024-03-06T10:53:13;15.60;96.90
22645;DHT22;11489;50.834;6.752;2024-03-06T10:55:40;15.60;96.90
22645;DHT22;11489;50.834;6.752;2024-03-06T10:58:08;15.70;96.90
22645;DHT22;11489;50.834;6.752;2024-03-06T11:00:45;15.80;96.70
22645;DHT22;11489;50.834;6.752;2024-03-06T11:03:14;15.90;96.20
22645;DHT22;11489;50.834;6.752;2024-03-06T11:05:41;16.00;96.90
22645;DHT22;11489;50.834;6.752;2024-03-06T11:08:09;16.10;97.00
22645;DHT22;11489;50.834;6.752;2024-03-06T11:10:38;16.30;96.60
22645;DHT22;11489;50.834;6.752;2024-03-06T11:13:30;16.30;96.00
22645;DHT22;11489;50.834;6.752;2024-03-06T11:15:57;16.30;94.90
22645;DHT22;11489;50.834;6.752;2024-03-06T11:23:33;16.40;95.50
22645;DHT22;11489;50.834;6.752;2024-03-06T11:26:01;16.50;96.10
22645;DHT22;11489;50.834;6.752;2024-03-06T11:28:33;16.50;96.00
22645;DHT22;11489;50.834;6.752;2024-03-06T11:31:10;16.50;95.50
22645;DHT22;11489;50.834;6.752;2024-03-06T11:33:45;16.50;94.70
22645;DHT22;11489;50.834;6.752;2024-03-06T11:36:25;16.50;95.80
22645;DHT22;11489;50.834;6.752;2024-03-06T11:39:03;16.50;94.40
22645;DHT22;11489;50.834;6.752;2024-03-06T11:41:31;16.60;95.40
22645;DHT22;11489;50.834;6.752;2024-03-06T11:44:00;16.70;97.00
22645;DHT22;11489;50.834;6.752;2024-03-06T11:46:48;16.90;97.10
22645;DHT22;11489;50.834;6.752;2024-03-06T11:49:22;17.00;95.60
22645;DHT22;11489;50.834;6.752;2024-03-06T11:51:57;17.00;96.20
22645;DHT22;11489;50.834;6.752;2024-03-06T11:54:26;17.00;95.30
22645;DHT22;11489;50.834;6.752;2024-03-06T11:56:58;16.80;93.90
22645;DHT22;11489;50.834;6.752;2024-03-06T12:01:54;16.30;93.90
22645;DHT22;11489;50.834;6.752;2024-03-06T12:04:21;16.00;94.30
22645;DHT22;11489;50.834;6.752;2024-03-06T12:06:48;15.70;94.80
22645;DHT22;11489;50.834;6.752;2024-03-06T12:09:14;15.60;95.90
22645;DHT22;11489;50.834;6.752;2024-03-06T12:11:41;15.50;96.30
22645;DHT22;11489;50.834;6.752;2024-03-06T12:14:13;15.50;96.30
22645;DHT22;11489;50.834;6.752;2024-03-06T12:16:40;15.50;95.50
22645;DHT22;11489;50.834;6.752;2024-03-06T12:19:05;15.50;96.00
22645;DHT22;11489;50.834;6.752;2024-03-06T12:21:32;15.50;96.40
22645;DHT22;11489;50.834;6.752;2024-03-06T12:24:10;15.50;96.80
22645;DHT22;11489;50.834;6.752;2024-03-06T12:26:36;15.50;95.30
22645;DHT22;11489;50.834;6.752;2024-03-06T12:29:10;15.50;96.20
22645;DHT22;11489;50.834;6.752;2024-03-06T12:31:37;15.40;94.90
22645;DHT22;11489;50.834;6.752;2024-03-06T12:34:05;15.40;95.80
22645;DHT22;11489;50.834;6.752;2024-03-06T12:36:32;15.30;95.90
22645;DHT22;11489;50.834;6.752;2024-03-06T12:39:06;15.30;95.90
22645;DHT22;11489;50.834;6.752;2024-03-06T12:41:41;15.30;95.30
22645;DHT22;11489;50.834;6.752;2024-03-06T12:44:07;15.30;95.50
22645;DHT22;11489;50.834;6.752;2024-03-06T12:46:33;15.30;96.30
22645;DHT22;11489;50.834;6.752;2024-03-06T12:48:59;15.40;96.60
22645;DHT22;11489;50.834;6.752;2024-03-06T12:51:25;15.40;96.50
22645;DHT22;11489;50.834;6.752;2024-03-06T12:53:50;15.50;97.00
22645;DHT22;11489;50.834;6.752;2024-03-06T12:56:17;15.60;97.50
22645;DHT22;11489;50.834;6.752;2024-03-06T12:58:43;15.90;98.30
22645;DHT22;11489;50.834;6.752;2024-03-06T13:01:09;16.20;98.40
22645;DHT22;11489;50.834;6.752;2024-03-06T13:03:36;16.40;97.70
22645;DHT22;11489;50.834;6.752;2024-03-06T13:06:02;16.50;96.90
22645;DHT22;11489;50.834;6.752;2024-03-06T13:08:30;16.70;96.40
22645;DHT22;11489;50.834;6.752;2024-03-06T13:10:55;16.70;96.10
22645;DHT22;11489;50.834;6.752;2024-03-06T13:13:22;16.70;95.90
22645;DHT22;11489;50.834;6.752;2024-03-06T13:15:52;16.70;95.90
22645;DHT22;11489;50.834;6.752;2024-03-06T13:18:18;16.70;95.80
22645;DHT22;11489;50.834;6.752;2024-03-06T13:20:44;16.80;96.20
22645;DHT22;11489;50.834;6.752;2024-03-06T13:23:11;16.90;96.30
22645;DHT22;11489;50.834;6.752;2024-03-06T13:25:36;17.00;96.60
22645;DHT22;11489;50.834;6.752;2024-03-06T13:28:03;17.30;96.80
22645;DHT22;11489;50.834;6.752;2024-03-06T13:30:29;17.40;96.50
22645;DHT22;11489;50.834;6.752;2024-03-06T13:32:54;17.50;95.50
22645;DHT22;11489;50.834;6.752;2024-03-06T13:35:20;17.60;94.40
22645;DHT22;11489;50.834;6.752;2024-03-06T13:37:46;17.40;93.80
22645;DHT22;11489;50.834;6.752;2024-03-06T13:40:12;17.20;93.10
22645;DHT22;11489;50.834;6.752;2024-03-06T13:42:39;17.00;93.20
22645;DHT22;11489;50.834;6.752;2024-03-06T13:45:06;16.70;93.50
22645;DHT22;11489;50.834;6.752;2024-03-06T13:47:39;16.60;93.90
22645;DHT22;11489;50.834;6.752;2024-03-06T13:50:07;16.40;94.00
22645;DHT22;11489;50.834;6.752;2024-03-06T13:52:34;16.30;93.70
22645;DHT22;11489;50.834;6.752;2024-03-06T13:54:59;16.10;93.80
22645;DHT22;11489;50.834;6.752;2024-03-06T13:57:28;16.00;93.20
22645;DHT22;11489;50.834;6.752;2024-03-06T13:59:54;15.80;93.50
22645;DHT22;11489;50.834;6.752;2024-03-06T14:02:20;15.70;93.60
22645;DHT22;11489;50.834;6.752;2024-03-06T14:04:46;15.50;93.10
22645;DHT22;11489;50.834;6.752;2024-03-06T14:07:12;15.30;93.30
22645;DHT22;11489;50.834;6.752;2024-03-06T14:09:38;15.20;93.60
22645;DHT22;11489;50.834;6.752;2024-03-06T14:12:04;15.10;94.00
22645;DHT22;11489;50.834;6.752;2024-03-06T14:14:29;14.90;94.00
22645;DHT22;11489;50.834;6.752;2024-03-06T14:16:55;14.80;94.20
22645;DHT22;11489;50.834;6.752;2024-03-06T14:19:21;14.80;94.70
22645;DHT22;11489;50.834;6.752;2024-03-06T14:21:47;14.80;95.00
22645;DHT22;11489;50.834;6.752;2024-03-06T14:24:13;14.80;94.80
22645;DHT22;11489;50.834;6.752;2024-03-06T14:26:39;14.90;94.60
22645;DHT22;11489;50.834;6.752;2024-03-06T14:29:06;14.90;94.50
22645;DHT22;11489;50.834;6.752;2024-03-06T14:31:33;14.90;94.70
22645;DHT22;11489;50.834;6.752;2024-03-06T14:34:00;14.90;94.90
22645;DHT22;11489;50.834;6.752;2024-03-06T14:36:26;14.90;94.60
22645;DHT22;11489;50.834;6.752;2024-03-06T14:38:52;15.00;94.80
22645;DHT22;11489;50.834;6.752;2024-03-06T14:41:21;15.10;94.60
22645;DHT22;11489;50.834;6.752;2024-03-06T14:43:47;15.10;94.00
22645;DHT22;11489;50.834;6.752;2024-03-06T14:46:13;15.10;94.20
22645;DHT22;11489;50.834;6.752;2024-03-06T14:48:39;15.10;94.10
22645;DHT22;11489;50.834;6.752;2024-03-06T14:51:06;15.20;94.90
22645;DHT22;11489;50.834;6.752;2024-03-06T14:53:32;15.30;94.70
22645;DHT22;11489;50.834;6.752;2024-03-06T14:55:58;15.40;94.40
22645;DHT22;11489;50.834;6.752;2024-03-06T14:58:24;15.40;94.20
22645;DHT22;11489;50.834;6.752;2024-03-06T15:00:50;15.40;93.90
22645;DHT22;11489;50.834;6.752;2024-03-06T15:03:17;15.40;93.70
22645;DHT22;11489;50.834;6.752;2024-03-06T15:05:45;15.40;93.40
22645;DHT22;11489;50.834;6.752;2024-03-06T15:08:11;15.30;93.30
22645;DHT22;11489;50.834;6.752;2024-03-06T15:10:38;15.20;93.30
22645;DHT22;11489;50.834;6.752;2024-03-06T15:13:04;15.10;93.30
22645;DHT22;11489;50.834;6.752;2024-03-06T15:15:30;15.10;93.20
22645;DHT22;11489;50.834;6.752;2024-03-06T15:17:57;15.00;93.20
22645;DHT22;11489;50.834;6.752;2024-03-06T15:20:23;14.90;93.10
22645;DHT22;11489;50.834;6.752;2024-03-06T15:22:48;14.90;93.30
22645;DHT22;11489;50.834;6.752;2024-03-06T15:25:14;14.90;93.60
22645;DHT22;11489;50.834;6.752;2024-03-06T15:27:41;15.00;93.70
22645;DHT22;11489;50.834;6.752;2024-03-06T15:30:10;15.10;93.80
22645;DHT22;11489;50.834;6.752;2024-03-06T15:32:40;15.20;93.30
22645;DHT22;11489;50.834;6.752;2024-03-06T15:35:05;15.30;93.70
22645;DHT22;11489;50.834;6.752;2024-03-06T15:37:31;15.30;93.30
22645;DHT22;11489;50.834;6.752;2024-03-06T15:39:57;15.30;93.00
22645;DHT22;11489;50.834;6.752;2024-03-06T15:42:24;15.20;92.80
22645;DHT22;11489;50.834;6.752;2024-03-06T15:44:51;15.20;92.80
22645;DHT22;11489;50.834;6.752;2024-03-06T15:47:17;15.20;93.10